Time;durP1;ratioP1;P1;durP2;ratioP2;P2;SDS_P1;SDS_P2;PMS_P1;PMS_P2;Temp;Humidity;BMP_temperature;BMP_pressure;BME280_temperature;BME280_humidity;BME280_pressure;Samples;Min_cycle;Max_cycle;Signal;HPM_P1;HPM_P2
2021/04/20 00:00:24;;;;;;;19.03;17.00;;;10.30;73.10;;;;;;5095617;28;21051;-69
2021/04/20 00:02:50;;;;;;;19.97;17.87;;;10.30;73.40;;;;;;5095920;28;20493;-69
2021/04/20 00:05:18;;;;;;;19.20;16.97;;;10.30;73.80;;;;;;5095853;28;20447;-69
2021/04/20 00:07:44;;;;;;;19.00;17.00;;;10.20;73.80;;;;;;5095431;28;20464;-69
2021/04/20 00:10:14;;;;;;;19.57;17.47;;;10.20;74.10;;;;;;5095772;28;20455;-69
2021/04/20 00:12:40;;;;;;;17.00;15.20;;;10.20;74.30;;;;;;5095667;28;20518;-69
2021/04/20 00:15:09;;;;;;;17.43;15.60;;;10.20;74.30;;;;;;5095690;28;20439;-69
2021/04/20 00:17:35;;;;;;;16.17;14.20;;;10.10;74.20;;;;;;5095196;28;20479;-69
2021/04/20 00:20:02;;;;;;;17.30;15.37;;;10.10;74.40;;;;;;5094604;28;20447;-69
2021/04/20 00:22:29;;;;;;;15.63;13.97;;;10.10;74.20;;;;;;5095578;28;20519;-69
2021/04/20 00:24:55;;;;;;;18.40;16.47;;;10.00;74.40;;;;;;5095437;28;20465;-69
2021/04/20 00:27:22;;;;;;;19.80;17.37;;;10.00;74.70;;;;;;5095362;28;20459;-69
2021/04/20 00:29:48;;;;;;;18.70;15.70;;;9.90;76.00;;;;;;5095364;28;20807;-69
2021/04/20 00:32:14;;;;;;;18.60;16.53;;;9.90;76.10;;;;;;5095304;28;20451;-69
2021/04/20 00:34:41;;;;;;;18.37;15.97;;;9.90;75.90;;;;;;5094970;28;20822;-69
2021/04/20 00:37:07;;;;;;;21.17;17.90;;;9.80;76.20;;;;;;5095095;28;20483;-69
2021/04/20 00:39:33;;;;;;;18.93;16.27;;;9.80;76.00;;;;;;5095211;28;20440;-69
2021/04/20 00:42:01;;;;;;;19.73;17.70;;;9.80;76.00;;;;;;5095139;28;20454;-69
2021/04/20 00:44:28;;;;;;;18.73;16.83;;;9.70;76.00;;;;;;5094742;28;20447;-69
2021/04/20 00:46:54;;;;;;;18.67;15.90;;;9.70;76.00;;;;;;5094649;28;20985;-69
2021/04/20 00:49:20;;;;;;;18.70;16.80;;;9.70;76.20;;;;;;5094960;28;20456;-69
2021/04/20 00:51:46;;;;;;;17.67;15.73;;;9.70;76.40;;;;;;5094936;28;20448;-69
2021/04/20 00:54:13;;;;;;;16.63;14.83;;;9.60;76.10;;;;;;5094858;28;20455;-69
2021/04/20 00:56:39;;;;;;;16.33;14.63;;;9.60;76.20;;;;;;5094319;28;20475;-69
2021/04/20 00:59:05;;;;;;;18.77;15.70;;;9.60;76.10;;;;;;5094847;28;20452;-69
2021/04/20 01:01:33;;;;;;;18.13;16.23;;;9.60;76.20;;;;;;5094776;28;20466;-69
2021/04/20 01:03:59;;;;;;;19.80;17.80;;;9.60;76.30;;;;;;5094768;28;20493;-69
2021/04/20 01:06:26;;;;;;;21.33;18.97;;;9.60;76.20;;;;;;5094390;28;20474;-69
2021/04/20 01:08:52;;;;;;;19.73;17.10;;;9.60;76.30;;;;;;5094347;28;20925;-69
2021/04/20 01:11:20;;;;;;;16.20;14.60;;;9.60;76.10;;;;;;5094673;28;20444;-69
2021/04/20 01:13:47;;;;;;;20.20;17.57;;;9.60;75.80;;;;;;5094639;28;20451;-69
2021/04/20 01:16:15;;;;;;;22.50;17.40;;;9.60;75.80;;;;;;5094479;28;20799;-69
2021/04/20 01:18:42;;;;;;;19.43;17.13;;;9.60;75.90;;;;;;5094509;28;20483;-69
2021/04/20 01:21:10;;;;;;;20.27;17.03;;;9.50;75.70;;;;;;5094404;28;20445;-69
2021/04/20 01:23:46;;;;;;;22.10;18.70;;;9.50;75.80;;;;;;5094045;28;21006;-69
2021/04/20 01:26:14;;;;;;;19.40;17.30;;;9.50;75.90;;;;;;5094273;28;20472;-69
2021/04/20 01:28:41;;;;;;;17.17;15.37;;;9.50;75.80;;;;;;5094239;28;20440;-69
2021/04/20 01:31:08;;;;;;;16.70;14.90;;;9.50;75.70;;;;;;5093879;28;20447;-69
2021/04/20 01:33:34;;;;;;;20.53;17.47;;;9.40;75.40;;;;;;5094262;28;20564;-69
2021/04/20 01:36:00;;;;;;;16.40;14.70;;;9.40;75.70;;;;;;5094072;28;20476;-69
2021/04/20 01:38:30;;;;;;;17.57;15.53;;;9.40;75.70;;;;;;5093690;28;20971;-69
2021/04/20 01:40:56;;;;;;;18.50;16.33;;;9.30;75.40;;;;;;5094107;28;20439;-69
2021/04/20 01:43:23;;;;;;;18.70;15.83;;;9.30;75.40;;;;;;5093996;28;20449;-69
2021/04/20 01:45:50;;;;;;;18.20;16.00;;;9.30;75.30;;;;;;5093919;28;20444;-69
2021/04/20 01:48:16;;;;;;;19.77;17.67;;;9.30;75.50;;;;;;5094018;28;20492;-69
2021/04/20 01:50:43;;;;;;;18.60;15.47;;;9.20;75.30;;;;;;5093891;28;20448;-69
2021/04/20 01:53:09;;;;;;;18.33;15.77;;;9.20;75.20;;;;;;5093892;28;20473;-69
2021/04/20 01:55:38;;;;;;;16.87;15.17;;;9.20;75.20;;;;;;5093575;28;20474;-69
2021/04/20 01:58:04;;;;;;;18.90;15.70;;;9.10;74.90;;;;;;5093768;28;20879;-69
2021/04/20 02:00:34;;;;;;;17.60;15.10;;;9.10;75.00;;;;;;5093458;28;21007;-69
2021/04/20 02:03:01;;;;;;;17.23;14.57;;;9.10;75.20;;;;;;5093395;28;20956;-69
2021/04/20 02:05:27;;;;;;;16.97;14.23;;;9.10;75.50;;;;;;5093699;28;20473;-69
2021/04/20 02:07:54;;;;;;;16.60;14.33;;;9.00;75.00;;;;;;5093558;28;20461;-69
2021/04/20 02:10:20;;;;;;;16.67;14.90;;;9.00;75.00;;;;;;5093368;28;20444;-69
2021/04/20 02:12:46;;;;;;;16.63;13.73;;;8.90;75.00;;;;;;5093595;28;20447;-69
2021/04/20 02:15:17;;;;;;;19.60;16.40;;;8.90;75.20;;;;;;5093560;28;20448;-69
2021/04/20 02:17:45;;;;;;;19.00;16.07;;;8.90;75.20;;;;;;5093415;28;20487;-69
2021/04/20 02:20:14;;;;;;;16.50;14.40;;;8.90;75.30;;;;;;5093553;28;20512;-69
2021/04/20 02:22:43;;;;;;;17.87;15.03;;;8.80;75.40;;;;;;5093476;28;20447;-69
2021/04/20 02:25:11;;;;;;;17.73;14.80;;;8.80;75.50;;;;;;5093492;28;20435;-69
2021/04/20 02:27:38;;;;;;;16.73;14.97;;;8.80;75.80;;;;;;5093109;28;20451;-69
2021/04/20 02:30:06;;;;;;;20.50;16.17;;;8.80;75.90;;;;;;5093497;28;20816;-69
2021/04/20 02:32:34;;;;;;;16.73;14.93;;;8.80;75.90;;;;;;5093088;28;20446;-69
2021/04/20 02:35:03;;;;;;;26.13;17.50;;;8.80;76.10;;;;;;5093363;28;20453;-69
2021/04/20 02:37:29;;;;;;;16.80;14.70;;;8.80;76.10;;;;;;5092976;28;20487;-69
2021/04/20 02:39:56;;;;;;;13.83;12.53;;;8.70;75.90;;;;;;5093085;28;20910;-69
2021/04/20 02:42:24;;;;;;;12.73;11.63;;;8.60;75.10;;;;;;5095051;28;20443;-69
2021/04/20 02:44:51;;;;;;;11.10;10.20;;;8.50;74.40;;;;;;5097106;28;20444;-69
2021/04/20 02:47:17;;;;;;;10.50;9.50;;;8.50;74.20;;;;;;5097300;28;20467;-69
2021/04/20 02:49:44;;;;;;;10.03;9.17;;;8.40;74.20;;;;;;5097367;28;20445;-69
2021/04/20 02:52:11;;;;;;;9.43;8.63;;;8.40;74.50;;;;;;5097265;28;20496;-69
2021/04/20 02:54:37;;;;;;;11.40;10.40;;;8.40;74.30;;;;;;5097210;28;20445;-69
2021/04/20 02:57:04;;;;;;;11.63;10.43;;;8.30;74.50;;;;;;5096720;28;20483;-69
2021/04/20 02:59:32;;;;;;;11.60;10.60;;;8.30;74.70;;;;;;5097148;28;20459;-69
2021/04/20 03:02:01;;;;;;;11.00;10.00;;;8.20;74.90;;;;;;5097110;28;20568;-69
2021/04/20 03:04:28;;;;;;;11.57;10.57;;;8.20;75.20;;;;;;5097057;28;20445;-69
2021/04/20 03:06:54;;;;;;;11.13;10.13;;;8.20;75.40;;;;;;5096919;28;20471;-69
2021/04/20 03:09:21;;;;;;;10.80;9.83;;;8.10;75.30;;;;;;5096938;28;20453;-69
2021/04/20 03:11:54;;;;;;;11.50;10.50;;;8.10;75.50;;;;;;5096925;28;20443;-69
2021/04/20 03:14:22;;;;;;;11.90;10.87;;;8.10;75.50;;;;;;5096993;28;20846;-70
2021/04/20 03:16:48;;;;;;;11.73;10.63;;;8.10;75.80;;;;;;5096741;28;20467;-69
2021/04/20 03:19:14;;;;;;;10.47;9.57;;;8.10;76.00;;;;;;5096723;28;20487;-69
2021/04/20 03:21:42;;;;;;;9.90;9.10;;;8.00;76.10;;;;;;5096795;28;20443;-69
2021/04/20 03:24:17;;;;;;;11.20;10.30;;;8.00;76.60;;;;;;5096750;28;20452;-69
2021/04/20 03:26:44;;;;;;;11.27;10.37;;;8.00;76.50;;;;;;5096549;28;20492;-69
2021/04/20 03:29:11;;;;;;;12.07;11.07;;;8.00;76.70;;;;;;5096529;28;20496;-69
2021/04/20 03:31:38;;;;;;;12.07;11.07;;;7.90;76.20;;;;;;5097171;28;20869;-69
2021/04/20 03:34:13;;;;;;;12.80;11.77;;;7.90;76.00;;;;;;5096501;28;20792;-69
2021/04/20 03:36:43;;;;;;;11.40;10.33;;;7.90;76.10;;;;;;5096099;28;20834;-69
2021/04/20 03:39:15;;;;;;;11.30;10.40;;;7.90;76.10;;;;;;5096331;28;20472;-69
2021/04/20 03:41:48;;;;;;;11.63;10.63;;;7.90;76.20;;;;;;5096346;28;20427;-69
2021/04/20 03:44:18;;;;;;;13.30;12.20;;;7.90;76.20;;;;;;5096300;28;20432;-69
2021/04/20 03:46:47;;;;;;;14.03;12.83;;;7.80;76.20;;;;;;5096223;28;20471;-69
2021/04/20 03:49:18;;;;;;;16.53;14.90;;;7.80;76.00;;;;;;5096187;28;20510;-69
2021/04/20 03:51:47;;;;;;;15.73;14.23;;;7.80;75.90;;;;;;5096196;28;20424;-69
2021/04/20 03:54:14;;;;;;;19.90;17.80;;;7.80;76.00;;;;;;5095680;28;20448;-69
2021/04/20 03:56:44;;;;;;;23.97;19.80;;;7.70;76.20;;;;;;5095539;28;20532;-69
2021/04/20 03:59:13;;;;;;;44.13;21.93;;;7.70;76.80;;;;;;5095598;28;20532;-69
2021/04/20 04:01:43;;;;;;;25.43;20.53;;;7.70;77.70;;;;;;5095799;28;20803;-69
2021/04/20 04:04:13;;;;;;;25.57;19.50;;;7.70;78.00;;;;;;5095727;28;20452;-69
2021/04/20 04:06:41;;;;;;;24.10;20.57;;;7.70;78.00;;;;;;5095437;28;20839;-69
2021/04/20 04:09:09;;;;;;;25.93;21.17;;;7.70;78.20;;;;;;5095735;28;20439;-69
2021/04/20 04:11:38;;;;;;;24.73;21.13;;;7.70;78.20;;;;;;5095659;28;20459;-69
2021/04/20 04:14:06;;;;;;;23.07;18.87;;;7.70;78.20;;;;;;5095660;28;20896;-69
2021/04/20 04:16:34;;;;;;;21.70;19.40;;;7.70;78.00;;;;;;5095139;28;21016;-69
2021/04/20 04:19:02;;;;;;;22.90;20.43;;;7.70;77.90;;;;;;5095413;28;20471;-69
2021/04/20 04:21:39;;;;;;;18.47;16.67;;;7.70;77.90;;;;;;5095441;28;20443;-69
2021/04/20 04:24:10;;;;;;;21.53;18.17;;;7.70;77.90;;;;;;5095549;28;20477;-69
2021/04/20 04:26:37;;;;;;;22.40;18.90;;;7.70;78.00;;;;;;5095340;28;20476;-69
2021/04/20 04:29:10;;;;;;;25.60;21.90;;;7.60;77.80;;;;;;5095242;28;20477;-69
2021/04/20 04:31:40;;;;;;;27.37;19.43;;;7.60;77.90;;;;;;5095213;28;20428;-69
2021/04/20 04:34:07;;;;;;;25.63;18.60;;;7.60;77.90;;;;;;5095175;28;20451;-68
2021/04/20 04:36:35;;;;;;;21.77;19.00;;;7.60;78.10;;;;;;5095137;28;20460;-68
2021/04/20 04:39:01;;;;;;;19.70;17.57;;;7.60;78.30;;;;;;5094954;28;20492;-68
2021/04/20 04:41:28;;;;;;;20.47;17.80;;;7.60;78.30;;;;;;5094688;28;21000;-68
2021/04/20 04:43:54;;;;;;;22.27;19.20;;;7.60;78.50;;;;;;5094960;28;20561;-68
2021/04/20 04:46:21;;;;;;;21.17;18.70;;;7.60;78.50;;;;;;5094850;28;20460;-68
2021/04/20 04:48:48;;;;;;;21.80;17.70;;;7.60;78.40;;;;;;5094479;28;20936;-69
2021/04/20 04:51:17;;;;;;;24.90;18.67;;;7.60;78.40;;;;;;5095033;28;20799;-71
2021/04/20 04:53:44;;;;;;;27.67;21.27;;;7.60;78.70;;;;;;5094770;28;20440;-69
2021/04/20 04:56:12;;;;;;;29.60;23.40;;;7.60;79.10;;;;;;5094219;28;20484;-69
2021/04/20 04:58:40;;;;;;;31.57;22.17;;;7.60;79.40;;;;;;5094280;28;20475;-69
2021/04/20 05:01:11;;;;;;;32.47;22.50;;;7.70;80.60;;;;;;5094654;28;20439;-69
2021/04/20 05:03:38;;;;;;;37.20;23.90;;;7.80;79.70;;;;;;5094757;28;20436;-69
2021/04/20 05:06:07;;;;;;;29.10;22.10;;;7.80;79.40;;;;;;5093882;28;20460;-69
2021/04/20 05:08:33;;;;;;;28.47;21.30;;;7.80;79.00;;;;;;5094342;28;20977;-69
2021/04/20 05:11:03;;;;;;;22.27;19.57;;;7.80;78.70;;;;;;5094679;28;20439;-69
2021/04/20 05:13:30;;;;;;;27.30;22.10;;;7.80;78.60;;;;;;5094508;28;20497;-69
2021/04/20 05:15:57;;;;;;;29.30;21.27;;;7.80;78.40;;;;;;5094117;28;20945;-69
2021/04/20 05:18:49;;;;;;;24.00;19.83;;;7.80;78.50;;;;;;5106771;28;20459;-68
2021/04/20 05:21:33;;;;;;;24.73;20.10;;;7.80;78.70;;;;;;5107487;27;20419;-69
2021/04/20 05:24:00;;;;;;;26.07;21.57;;;7.80;79.00;;;;;;5094262;28;20874;-69
2021/04/20 05:26:27;;;;;;;24.37;20.90;;;7.80;79.30;;;;;;5094287;28;20913;-69
2021/04/20 05:28:53;;;;;;;24.40;20.30;;;7.80;79.30;;;;;;5094276;28;20455;-69
2021/04/20 05:31:19;;;;;;;28.83;22.00;;;7.80;79.50;;;;;;5094766;28;20440;-69
2021/04/20 05:33:46;;;;;;;26.23;21.10;;;7.90;79.80;;;;;;5094173;28;20447;-69
2021/04/20 05:36:13;;;;;;;24.23;20.90;;;7.90;80.00;;;;;;5093986;28;20967;-69
2021/04/20 05:38:40;;;;;;;27.70;22.63;;;7.90;79.80;;;;;;5093756;28;20530;-69
2021/04/20 05:41:07;;;;;;;27.00;22.20;;;8.00;80.10;;;;;;5093860;28;20494;-69
2021/04/20 05:43:33;;;;;;;27.70;22.00;;;8.00;80.40;;;;;;5094005;28;20455;-69
2021/04/20 05:45:59;;;;;;;30.10;22.43;;;8.00;80.60;;;;;;5093540;28;20957;-69
2021/04/20 05:48:26;;;;;;;35.30;26.57;;;8.10;81.30;;;;;;5093976;28;20522;-69
2021/04/20 05:50:52;;;;;;;34.53;24.87;;;8.10;82.10;;;;;;5093908;28;20504;-69
2021/04/20 05:53:18;;;;;;;42.53;27.83;;;8.20;82.60;;;;;;5093965;28;20473;-69
2021/04/20 05:55:46;;;;;;;38.93;26.93;;;8.20;82.80;;;;;;5093551;28;20505;-69
2021/04/20 05:58:13;;;;;;;40.20;26.63;;;8.30;83.20;;;;;;5093421;28;21075;-69
2021/04/20 06:00:40;;;;;;;44.40;29.70;;;8.30;83.40;;;;;;5093812;28;20448;-69
2021/04/20 06:03:06;;;;;;;36.23;28.00;;;8.40;83.60;;;;;;5093471;28;20941;-69
2021/04/20 06:05:32;;;;;;;34.23;26.40;;;8.50;83.60;;;;;;5094648;28;20815;-69
2021/04/20 06:08:02;;;;;;;36.80;29.20;;;8.50;83.70;;;;;;5094155;28;20455;-69
2021/04/20 06:10:29;;;;;;;43.77;30.33;;;8.60;84.10;;;;;;5093790;28;20494;-69
2021/04/20 06:12:56;;;;;;;39.47;29.00;;;8.60;84.30;;;;;;5093683;28;20448;-69
2021/04/20 06:15:25;;;;;;;33.30;26.27;;;8.70;84.60;;;;;;5093552;28;20440;-69
2021/04/20 06:17:52;;;;;;;35.03;26.07;;;8.70;84.80;;;;;;5093489;28;20480;-69
2021/04/20 06:20:21;;;;;;;34.13;27.33;;;8.80;85.00;;;;;;5093605;28;20470;-69
2021/04/20 06:22:49;;;;;;;35.03;27.23;;;8.90;85.00;;;;;;5093563;28;20436;-69
2021/04/20 06:25:16;;;;;;;35.73;29.43;;;9.00;85.30;;;;;;5093488;28;20443;-69
2021/04/20 06:27:44;;;;;;;40.87;30.40;;;9.00;85.20;;;;;;5093408;28;20489;-69
2021/04/20 06:30:12;;;;;;;38.10;29.97;;;9.10;85.20;;;;;;5093457;28;20489;-69
2021/04/20 06:32:39;;;;;;;38.70;29.80;;;9.20;85.40;;;;;;5093508;28;20791;-69
2021/04/20 06:35:08;;;;;;;43.43;32.50;;;9.30;85.80;;;;;;5093118;28;20431;-69
2021/04/20 06:37:35;;;;;;;40.50;30.47;;;9.40;86.10;;;;;;5093275;28;20536;-69
2021/04/20 06:40:05;;;;;;;41.57;31.70;;;9.40;86.10;;;;;;5093197;28;20952;-69
2021/04/20 06:42:37;;;;;;;39.53;32.33;;;9.50;86.30;;;;;;5093444;28;20456;-69
2021/04/20 06:45:07;;;;;;;40.13;30.23;;;9.50;86.60;;;;;;5093368;28;20466;-69
2021/04/20 06:47:41;;;;;;;38.40;30.83;;;9.60;86.80;;;;;;5093326;28;20537;-69
2021/04/20 06:50:10;;;;;;;43.43;31.43;;;9.70;86.80;;;;;;5093413;28;20435;-69
2021/04/20 06:52:49;;;;;;;40.50;33.30;;;9.80;87.20;;;;;;5093841;28;20431;-69
2021/04/20 06:55:23;;;;;;;47.03;35.50;;;10.00;86.80;;;;;;5092930;28;20455;-69
2021/04/20 06:58:00;;;;;;;44.10;34.00;;;10.00;87.00;;;;;;5092997;28;20487;-69
2021/04/20 07:00:32;;;;;;;49.87;34.73;;;10.20;87.40;;;;;;5093196;28;20427;-69
2021/04/20 07:03:07;;;;;;;37.60;27.80;;;10.30;87.20;;;;;;5092988;28;20428;-69
2021/04/20 07:05:44;;;;;;;49.63;34.67;;;10.50;86.30;;;;;;5093047;28;20432;-69
2021/04/20 07:08:18;;;;;;;45.57;35.20;;;10.60;85.70;;;;;;5092864;28;20912;-69
2021/04/20 07:10:45;;;;;;;52.53;38.67;;;10.80;86.40;;;;;;5093081;28;20420;-69
2021/04/20 07:13:16;;;;;;;44.60;34.67;;;11.00;86.10;;;;;;5092645;28;20454;-69
2021/04/20 07:15:48;;;;;;;38.83;30.77;;;11.10;85.10;;;;;;5092599;28;20977;-69
2021/04/20 07:18:46;;;;;;;51.03;37.67;;;11.30;84.60;;;;;;5092821;28;20520;-69
2021/04/20 07:21:22;;;;;;;34.70;28.73;;;11.50;83.80;;;;;;5093038;28;20438;-68
2021/04/20 07:24:13;;;;;;;43.67;34.07;;;11.70;83.50;;;;;;5093005;28;20446;-70
2021/04/20 07:27:13;;;;;;;44.83;36.23;;;11.90;82.30;;;;;;5093013;28;20491;-69
2021/04/20 07:30:13;;;;;;;47.13;33.50;;;12.20;83.40;;;;;;5062926;28;20513;-69
2021/04/20 07:32:56;;;;;;;48.00;36.93;;;12.40;83.60;;;;;;5096562;28;20439;-69
2021/04/20 07:35:29;;;;;;;50.07;35.07;;;12.60;83.80;;;;;;5096536;28;20539;-68
2021/04/20 07:37:57;;;;;;;44.83;35.53;;;12.70;82.80;;;;;;5096125;28;20479;-69
2021/04/20 07:40:29;;;;;;;48.50;38.90;;;12.90;81.50;;;;;;5096441;28;20437;-69
2021/04/20 07:43:26;;;;;;;51.17;38.37;;;13.10;82.00;;;;;;5096413;28;20428;-69
2021/04/20 07:45:55;;;;;;;40.93;33.30;;;13.30;82.70;;;;;;5096250;28;20428;-69
2021/04/20 07:48:45;;;;;;;42.33;34.77;;;13.50;81.70;;;;;;5095870;28;20937;-69
2021/04/20 07:51:19;;;;;;;39.57;32.60;;;13.70;80.70;;;;;;5096245;28;20428;-69
2021/04/20 07:53:55;;;;;;;38.80;30.07;;;13.90;78.80;;;;;;5096164;28;20432;-69
2021/04/20 07:56:27;;;;;;;38.37;32.30;;;14.20;77.20;;;;;;5095690;28;20855;-68
2021/04/20 07:58:58;;;;;;;42.47;34.83;;;14.40;75.70;;;;;;5095612;28;20987;-68
2021/04/20 08:01:41;;;;;;;54.20;42.37;;;14.70;75.60;;;;;;5095960;28;20431;-68
2021/04/20 08:04:19;;;;;;;50.33;39.90;;;14.90;76.00;;;;;;5095962;28;20432;-68
2021/04/20 08:06:47;;;;;;;43.00;35.60;;;15.00;76.10;;;;;;5095851;28;20470;-68
2021/04/20 08:09:19;;;;;;;48.00;39.80;;;15.20;74.60;;;;;;5095524;28;20956;-68
2021/04/20 08:11:47;;;;;;;44.73;36.90;;;15.30;73.90;;;;;;5095554;28;20521;-68
2021/04/20 08:14:22;;;;;;;46.17;36.90;;;15.50;74.20;;;;;;5095732;28;20501;-68
2021/04/20 08:16:53;;;;;;;43.50;34.00;;;15.60;73.40;;;;;;5095679;28;20479;-68
2021/04/20 08:19:23;;;;;;;46.03;36.17;;;15.90;72.70;;;;;;5095613;28;20517;-68
2021/04/20 08:21:51;;;;;;;43.50;36.67;;;16.20;71.10;;;;;;5095978;28;20436;-69
2021/04/20 08:24:22;;;;;;;44.93;38.67;;;16.40;69.50;;;;;;5095644;28;20910;-69
2021/04/20 08:26:55;;;;;;;53.10;40.00;;;16.50;67.60;;;;;;5095443;28;20981;-69
2021/04/20 08:29:25;;;;;;;44.63;38.87;;;16.50;67.70;;;;;;5095487;28;20428;-69
2021/04/20 08:31:55;;;;;;;46.40;38.07;;;16.60;68.20;;;;;;5095392;28;20435;-69
2021/04/20 08:34:30;;;;;;;47.00;37.40;;;16.70;68.30;;;;;;5095393;28;20434;-69
2021/04/20 08:37:09;;;;;;;45.03;37.60;;;16.70;65.90;;;;;;5095238;28;20512;-69
2021/04/20 08:39:41;;;;;;;41.63;35.90;;;16.60;67.30;;;;;;5094089;28;20517;-69
2021/04/20 08:42:15;;;;;;;43.60;37.90;;;16.50;66.40;;;;;;5095164;28;20431;-69
2021/04/20 08:44:50;;;;;;;46.40;39.63;;;16.50;68.30;;;;;;5095134;28;20431;-69
2021/04/20 08:47:23;;;;;;;48.27;38.33;;;16.50;66.90;;;;;;5095004;28;20552;-69
2021/04/20 08:49:55;;;;;;;41.83;37.20;;;16.40;65.30;;;;;;5095087;28;20806;-69
2021/04/20 08:52:36;;;;;;;36.83;32.80;;;16.50;65.80;;;;;;5095056;28;20493;-69
2021/04/20 08:55:15;;;;;;;43.30;36.13;;;16.60;62.50;;;;;;5094850;28;20434;-69
2021/04/20 08:58:02;;;;;;;45.50;36.70;;;16.60;65.60;;;;;;5094798;28;20467;-69
2021/04/20 09:00:38;;;;;;;45.17;38.17;;;16.70;66.60;;;;;;5094865;28;20508;-69
2021/04/20 09:03:14;;;;;;;43.80;36.30;;;16.90;63.90;;;;;;5094816;28;20420;-69
2021/04/20 09:05:48;;;;;;;41.57;37.00;;;17.10;63.20;;;;;;5094764;28;20428;-69
2021/04/20 09:08:34;;;;;;;44.10;36.60;;;17.20;61.60;;;;;;5094740;28;20424;-69
2021/04/20 09:11:11;;;;;;;43.10;37.00;;;17.30;61.30;;;;;;5094714;28;20450;-70
2021/04/20 09:13:44;;;;;;;43.87;34.90;;;17.50;61.50;;;;;;5094681;28;20432;-70
2021/04/20 09:16:13;;;;;;;46.97;35.70;;;17.70;60.30;;;;;;5094493;28;20464;-70
2021/04/20 09:18:43;;;;;;;43.43;37.57;;;18.10;59.80;;;;;;5094511;28;20459;-70
2021/04/20 09:21:17;;;;;;;39.80;35.30;;;18.10;58.30;;;;;;5094568;28;20428;-70
2021/04/20 09:24:16;;;;;;;41.40;36.03;;;18.40;58.20;;;;;;5094500;28;20865;-70
2021/04/20 09:26:46;;;;;;;34.67;30.97;;;18.70;57.80;;;;;;5082311;28;20487;-70
2021/04/20 09:29:15;;;;;;;30.90;27.60;;;19.20;57.30;;;;;;5094047;28;20924;-70
2021/04/20 09:31:52;;;;;;;34.23;30.63;;;19.70;54.80;;;;;;5094329;28;20431;-70
2021/04/20 09:34:20;;;;;;;35.20;31.10;;;20.10;53.00;;;;;;5094254;28;20419;-70
2021/04/20 09:36:47;;;;;;;34.27;30.57;;;20.20;50.60;;;;;;5094208;28;20459;-70
2021/04/20 09:39:15;;;;;;;33.80;30.10;;;20.10;50.10;;;;;;5095007;28;20468;-70
2021/04/20 09:41:44;;;;;;;35.23;30.57;;;20.00;50.40;;;;;;5094164;28;20432;-70
2021/04/20 09:44:18;;;;;;;34.87;28.60;;;20.00;50.90;;;;;;5094080;28;20444;-70
2021/04/20 09:47:03;;;;;;;32.00;28.70;;;20.20;52.10;;;;;;5093979;28;20463;-70
2021/04/20 09:49:45;;;;;;;36.60;32.70;;;20.10;49.90;;;;;;5094023;28;20420;-70
2021/04/20 09:52:16;;;;;;;33.50;29.87;;;20.00;51.00;;;;;;5093691;28;20428;-70
2021/04/20 09:54:50;;;;;;;36.07;32.40;;;20.00;53.00;;;;;;5093858;28;20443;-70
2021/04/20 09:57:20;;;;;;;39.47;31.90;;;20.30;52.10;;;;;;5094543;28;20471;-70
2021/04/20 09:59:52;;;;;;;30.80;27.37;;;20.60;51.40;;;;;;5093747;28;20459;-70
2021/04/20 10:02:46;;;;;;;30.47;27.23;;;21.20;51.70;;;;;;5093907;28;20523;-70
2021/04/20 10:05:17;;;;;;;31.20;28.00;;;21.90;51.10;;;;;;5093416;28;20428;-70
2021/04/20 10:07:58;;;;;;;31.97;28.63;;;22.60;48.60;;;;;;5093669;28;20460;-70
2021/04/20 10:10:37;;;;;;;27.73;25.03;;;23.40;47.60;;;;;;5093455;28;20790;-70
2021/04/20 10:13:20;;;;;;;32.87;29.30;;;24.00;46.40;;;;;;5093428;28;20915;-70
2021/04/20 10:15:52;;;;;;;34.17;30.57;;;24.70;43.50;;;;;;5093529;28;20435;-70
2021/04/20 10:18:25;;;;;;;27.03;24.43;;;24.90;40.30;;;;;;5093575;28;20553;-70
2021/04/20 10:21:03;;;;;;;28.90;26.20;;;25.30;40.50;;;;;;5093602;28;20424;-70
2021/04/20 10:23:39;;;;;;;19.50;17.60;;;25.80;39.70;;;;;;5093576;28;20431;-70
2021/04/20 10:26:16;;;;;;;19.90;18.07;;;26.00;37.60;;;;;;5093535;28;20480;-71
2021/04/20 10:28:48;;;;;;;20.40;18.40;;;26.40;35.90;;;;;;5093583;28;20424;-70
2021/04/20 10:31:17;;;;;;;20.40;18.50;;;26.60;33.90;;;;;;5093202;28;20428;-70
2021/04/20 10:33:48;;;;;;;17.17;15.77;;;26.60;33.60;;;;;;5093530;28;20448;-70
2021/04/20 10:36:16;;;;;;;16.43;15.00;;;26.90;34.50;;;;;;5093364;28;20466;-70
2021/04/20 10:38:43;;;;;;;17.27;15.67;;;27.50;34.20;;;;;;5093347;28;20545;-70
2021/04/20 10:41:24;;;;;;;14.50;13.00;;;28.20;33.30;;;;;;5093090;28;20436;-70
2021/04/20 10:43:53;;;;;;;18.77;17.07;;;29.10;32.00;;;;;;5094221;28;20815;-70
2021/04/20 10:46:24;;;;;;;18.60;17.00;;;29.70;28.30;;;;;;5093280;28;20532;-70
2021/04/20 10:48:52;;;;;;;19.37;17.73;;;29.80;27.30;;;;;;5093382;28;20440;-70
2021/04/20 10:51:27;;;;;;;18.47;16.87;;;29.70;27.20;;;;;;5093033;28;20905;-70
2021/04/20 10:53:56;;;;;;;15.10;13.90;;;29.60;28.40;;;;;;5093004;28;20460;-70
2021/04/20 10:56:24;;;;;;;14.60;13.37;;;29.50;28.20;;;;;;5092822;28;20855;-70
2021/04/20 10:58:54;;;;;;;14.93;13.73;;;29.30;27.40;;;;;;5092799;28;21017;-71
2021/04/20 11:01:23;;;;;;;15.80;14.40;;;28.80;28.30;;;;;;5093231;28;20442;-70
2021/04/20 11:03:51;;;;;;;15.97;14.60;;;28.20;29.00;;;;;;5095331;28;20902;-71
2021/04/20 11:06:55;;;;;;;14.53;13.23;;;27.40;28.70;;;;;;5097091;28;20463;-70
2021/04/20 11:09:28;;;;;;;13.70;12.40;;;26.70;28.90;;;;;;5097058;28;20776;-70
2021/04/20 11:11:55;;;;;;;14.67;13.47;;;26.90;28.20;;;;;;5096988;28;20432;-70
2021/04/20 11:14:37;;;;;;;14.97;13.67;;;27.40;28.20;;;;;;5096689;28;20924;-70
2021/04/20 11:17:04;;;;;;;13.90;12.70;;;27.90;26.80;;;;;;5096807;28;20466;-70
2021/04/20 11:19:33;;;;;;;14.23;13.03;;;28.50;27.30;;;;;;5096786;28;20479;-70
2021/04/20 11:22:02;;;;;;;16.17;14.77;;;29.10;27.10;;;;;;5096798;28;20415;-70
2021/04/20 11:24:33;;;;;;;16.77;15.30;;;29.40;26.20;;;;;;5096821;28;20428;-70
2021/04/20 11:27:09;;;;;;;14.97;13.77;;;29.10;26.90;;;;;;5096333;28;20969;-70
2021/04/20 11:29:44;;;;;;;13.73;12.60;;;29.30;27.20;;;;;;5096704;28;20431;-70
2021/04/20 11:32:17;;;;;;;17.53;15.90;;;29.90;27.80;;;;;;5096598;28;20431;-70
2021/04/20 11:34:47;;;;;;;15.33;14.03;;;30.90;26.40;;;;;;5096523;28;20427;-70
2021/04/20 11:37:20;;;;;;;16.50;15.20;;;31.70;24.80;;;;;;5096586;28;20478;-71
2021/04/20 11:39:53;;;;;;;19.27;17.67;;;32.60;24.80;;;;;;5096429;28;20470;-71
2021/04/20 11:42:27;;;;;;;16.80;15.40;;;33.20;22.90;;;;;;5096491;28;20485;-71
2021/04/20 11:44:56;;;;;;;18.13;16.63;;;33.60;22.90;;;;;;5096461;28;20482;-71
2021/04/20 11:47:24;;;;;;;17.47;16.03;;;33.10;21.60;;;;;;5096277;28;20481;-71
2021/04/20 11:49:53;;;;;;;18.60;17.10;;;32.30;22.80;;;;;;5096323;28;20434;-71
2021/04/20 11:52:23;;;;;;;16.53;15.33;;;31.40;23.30;;;;;;5096221;28;20500;-70
2021/04/20 11:54:55;;;;;;;16.57;15.17;;;30.30;24.60;;;;;;5095801;28;20938;-70
2021/04/20 11:57:24;;;;;;;12.63;11.53;;;29.00;25.30;;;;;;5096099;28;20503;-73
2021/04/20 11:59:51;;;;;;;13.63;12.53;;;28.80;27.80;;;;;;5095733;28;20997;-71
2021/04/20 12:02:19;;;;;;;15.90;14.60;;;29.50;26.90;;;;;;5095736;28;20428;-70
2021/04/20 12:04:47;;;;;;;15.73;14.43;;;29.90;25.50;;;;;;5095968;28;20553;-71
2021/04/20 12:07:15;;;;;;;14.30;13.20;;;30.40;24.60;;;;;;5095946;28;20468;-71
2021/04/20 12:09:44;;;;;;;14.83;13.60;;;30.40;25.40;;;;;;5095632;28;20968;-71
2021/04/20 12:12:12;;;;;;;15.60;14.40;;;30.10;23.90;;;;;;5095832;28;20824;-70
2021/04/20 12:14:40;;;;;;;15.57;14.37;;;29.40;25.40;;;;;;5095567;28;20473;-70
2021/04/20 12:17:07;;;;;;;13.17;12.10;;;29.60;25.80;;;;;;5095369;28;20849;-70
2021/04/20 12:19:36;;;;;;;10.80;9.90;;;30.00;25.20;;;;;;5095680;28;20908;-70
2021/04/20 12:22:05;;;;;;;11.67;10.77;;;30.70;23.90;;;;;;5095700;28;20447;-70
2021/04/20 12:24:34;;;;;;;11.50;10.50;;;31.70;22.30;;;;;;5095658;28;20428;-70
2021/04/20 12:27:03;;;;;;;13.80;12.70;;;32.70;22.40;;;;;;5095214;28;20549;-71
2021/04/20 12:29:33;;;;;;;14.33;13.13;;;33.70;20.80;;;;;;5095614;28;20530;-71
2021/04/20 12:32:00;;;;;;;13.83;12.73;;;34.20;20.80;;;;;;5095357;28;20430;-71
2021/04/20 12:34:27;;;;;;;13.30;12.10;;;34.90;20.70;;;;;;5095486;28;20431;-71
2021/04/20 12:36:57;;;;;;;13.73;12.80;;;35.30;18.80;;;;;;5095333;28;20531;-71
2021/04/20 12:39:29;;;;;;;14.30;13.10;;;35.50;17.90;;;;;;5095356;28;20482;-71
2021/04/20 12:41:57;;;;;;;13.97;12.87;;;34.30;18.20;;;;;;5095276;28;20470;-70
2021/04/20 12:44:28;;;;;;;12.37;11.37;;;33.90;20.50;;;;;;5095283;28;20427;-70
2021/04/20 12:46:56;;;;;;;14.30;13.30;;;34.40;20.90;;;;;;5095132;28;20482;-70
2021/04/20 12:49:24;;;;;;;14.50;13.50;;;35.40;20.10;;;;;;5095129;28;20424;-70